• Join FlightAware (Why Join?)
  • Login
  • US Flag 
09:26AM EDT


 

Airport Tracker/Info


-or-


 

Live Flight TrackerFlight Track Log ✈ CSN3200 ✈ 24-Jul-2013 ✈ ZBSJ / SJW - ZGGG / CAN

Flight Track Log - Related Links

Times and Time Zones

All times are in EDT time to prevent confusion due to time zone crossing. See the CSN3200 flight status page for this flight to view local times or setup timezone preferences in your user account.

Time Position Orientation Groundspeed Altitude Reporting Facility
EDT Latitude Longitude Course Direction KTS MPH feet Rate Location/Type
10:49AM 38.1558 114.6828 185° South  Level Estimated
10:50AM 38.0307 114.6690 185° South  Level Estimated
10:51AM 37.9057 114.6552 185° South  Level Estimated
10:52AM 37.7807 114.6415 185° South  Level Estimated
10:53AM 37.6556 114.6278 185° South  Level Estimated
10:54AM 37.5306 114.6142 185° South  Level Estimated
10:55AM 37.4055 114.6006 185° South  Level Estimated
10:56AM 37.2805 114.5870 185° South  Level Estimated
10:57AM 37.1555 114.5735 185° South  Level Estimated
10:58AM 37.0304 114.5601 185° South  Level Estimated
10:59AM 36.9054 114.5467 185° South  Level Estimated
11:00AM 36.7803 114.5333 185° South  Level Estimated
11:01AM 36.6553 114.5200 185° South  Level Estimated
11:02AM 36.5302 114.5067 185° South  Level Estimated
11:03AM 36.4052 114.4935 185° South  Level Estimated
11:04AM 36.2801 114.4803 185° South  Level Estimated
11:05AM 36.1551 114.4671 185° South  Level Estimated
11:06AM 36.0300 114.4540 185° South  Level Estimated
11:07AM 35.9050 114.4410 185° South  Level Estimated
11:08AM 35.7799 114.4280 185° South  Level Estimated
11:09AM 35.6549 114.4150 185° South  Level Estimated
11:10AM 35.5298 114.4020 185° South  Level Estimated
11:11AM 35.4047 114.3891 185° South  Level Estimated
11:12AM 35.2797 114.3763 185° South  Level Estimated
11:13AM 35.1546 114.3635 185° South  Level Estimated
11:14AM 35.0295 114.3507 185° South  Level Estimated
11:15AM 34.9045 114.3379 185° South  Level Estimated
11:16AM 34.7794 114.3252 185° South  Level Estimated
11:17AM 34.6543 114.3126 185° South  Level Estimated
11:18AM 34.5293 114.2999 185° South  Level Estimated
11:19AM 34.4042 114.2873 185° South  Level Estimated
11:20AM 34.2791 114.2748 185° South  Level Estimated
11:21AM 34.1540 114.2623 185° South  Level Estimated
11:22AM 34.0290 114.2498 185° South  Level Estimated
11:23AM 33.9039 114.2374 185° South  Level Estimated
11:24AM 33.7788 114.2249 185° South  Level Estimated
11:25AM 33.6537 114.2126 185° South  Level Estimated
11:26AM 33.5286 114.2002 185° South  Level Estimated
11:27AM 33.4036 114.1879 185° South  Level Estimated
11:28AM 33.2785 114.1757 185° South  Level Estimated
11:29AM 33.1534 114.1635 185° South  Level Estimated
11:30AM 33.0283 114.1513 185° South  Level Estimated
11:31AM 32.9032 114.1391 185° South  Level Estimated
11:32AM 32.7781 114.1270 185° South  Level Estimated
11:33AM 32.6530 114.1149 185° South  Level Estimated
11:34AM 32.5280 114.1028 185° South  Level Estimated
11:35AM 32.4029 114.0908 185° South  Level Estimated
11:36AM 32.2778 114.0788 185° South  Level Estimated
11:37AM 32.1527 114.0669 185° South  Level Estimated
11:38AM 32.0276 114.0549 185° South  Level Estimated
11:39AM 31.9025 114.0431 185° South  Level Estimated
11:40AM 31.7774 114.0312 185° South  Level Estimated
11:41AM 31.6523 114.0194 185° South  Level Estimated
11:42AM 31.5272 114.0076 185° South  Level Estimated
11:43AM 31.4021 113.9958 185° South  Level Estimated
11:44AM 31.2770 113.9841 185° South  Level Estimated
11:45AM 31.1519 113.9724 185° South  Level Estimated
11:46AM 31.0268 113.9607 185° South  Level Estimated
11:47AM 30.9017 113.9491 185° South  Level Estimated
11:48AM 30.7766 113.9375 185° South  Level Estimated
11:49AM 30.6515 113.9259 185° South  Level Estimated
11:50AM 30.5264 113.9143 185° South  Level Estimated
11:51AM 30.4013 113.9028 185° South  Level Estimated
11:52AM 30.2761 113.8913 185° South  Level Estimated
11:53AM 30.1510 113.8799 185° South  Level Estimated
11:54AM 30.0259 113.8684 185° South  Level Estimated
11:55AM 29.9008 113.8570 185° South  Level Estimated
11:56AM 29.7757 113.8457 185° South  Level Estimated
11:57AM 29.6506 113.8343 185° South  Level Estimated
11:58AM 29.5255 113.8230 185° South  Level Estimated
11:59AM 29.4004 113.8117 184° South  Level Estimated
12:00PM 29.2752 113.8004 184° South  Level Estimated
12:01PM 29.1501 113.7892 184° South  Level Estimated
12:02PM 29.0250 113.7780 184° South  Level Estimated
12:03PM 28.8999 113.7668 184° South  Level Estimated
12:04PM 28.7747 113.7557 184° South  Level Estimated
12:05PM 28.6496 113.7445 184° South  Level Estimated
12:06PM 28.5245 113.7334 184° South  Level Estimated
12:07PM 28.3994 113.7224 184° South  Level Estimated
12:08PM 28.2743 113.7113 184° South  Level Estimated
12:09PM 28.1491 113.7003 184° South  Level Estimated
12:10PM 28.0240 113.6893 184° South  Level Estimated
12:11PM 27.8989 113.6783 184° South  Level Estimated
12:12PM 27.7737 113.6674 184° South  Level Estimated
12:13PM 27.6486 113.6565 184° South  Level Estimated
12:14PM 27.5235 113.6456 184° South  Level Estimated
12:15PM 27.3983 113.6347 184° South  Level Estimated
12:16PM 27.2732 113.6239 184° South  Level Estimated
12:17PM 27.1481 113.6130 184° South  Level Estimated
12:18PM 27.0230 113.6022 184° South  Level Estimated
12:19PM 26.8978 113.5915 184° South  Level Estimated
12:20PM 26.7727 113.5807 184° South  Level Estimated
12:21PM 26.6476 113.5700 184° South  Level Estimated
12:22PM 26.5224 113.5593 184° South  Level Estimated
12:23PM 26.3973 113.5486 184° South  Level Estimated
12:24PM 26.2721 113.5380 184° South  Level Estimated
12:25PM 26.1470 113.5273 184° South  Level Estimated
12:26PM 26.0219 113.5167 184° South  Level Estimated
12:27PM 25.8967 113.5061 184° South  Level Estimated
12:28PM 25.7716 113.4956 184° South  Level Estimated
12:29PM 25.6464 113.4850 184° South  Level Estimated
12:30PM 25.5213 113.4745 184° South  Level Estimated
12:31PM 25.3962 113.4640 184° South  Level Estimated
12:32PM 25.2710 113.4535 184° South  Level Estimated
12:33PM 25.1459 113.4431 184° South  Level Estimated
12:34PM 25.0207 113.4326 184° South  Level Estimated
12:35PM 24.8956 113.4222 184° South  Level Estimated
12:36PM 24.7704 113.4118 184° South  Level Estimated
12:37PM 24.6453 113.4015 184° South  Level Estimated
12:38PM 24.5201 113.3911 184° South  Level Estimated
12:39PM 24.3950 113.3808 184° South  Level Estimated
12:40PM 24.2698 113.3705 184° South  Level Estimated
12:41PM 24.1447 113.3602 184° South  Level Estimated
12:42PM 24.0195 113.3499 184° South  Level Estimated
12:43PM 23.8944 113.3397 184° South  Level Estimated
12:44PM 23.7692 113.3295 184° South  Level Estimated
12:44PM 24.4270 113.7160 184° South 371 427 18,000  Level FlightAware
12:45PM 23.6441 113.3192 184° South  Level Estimated
12:45PM 24.3510 113.7070 186° South 362 417 16,900  Level FlightAware
12:46PM 24.2830 113.6990 186° South 353 406 15,800 -1,440 Descending FlightAware
12:46PM 24.2190 113.6910 187° South 353 406 15,000 -1,200 Descending FlightAware
12:47PM 24.1490 113.6790 189° South 346 398 14,200 -900 Descending FlightAware
12:48PM 24.0910 113.6570 199° South 316 364 13,800 -360 Descending FlightAware
12:48PM 24.0320 113.6320 201° Southwest 295 339 13,700 -420 Descending FlightAware
12:49PM 23.9840 113.6160 197° South 325 374 13,300 -780 Descending FlightAware
12:50PM 23.9210 113.5930 198° South 337 388 12,700 -780 Descending FlightAware
12:50PM 23.8570 113.5690 199° South 330 380 12,200 -720 Descending FlightAware
12:51PM 23.8100 113.5510 199° South 328 377 11,800 -660 Descending FlightAware
12:52PM 23.7530 113.5290 199° South 298 343 11,400 -660 Descending FlightAware
12:52PM 23.7250 113.5050 218° Southwest 302 348 11,100 -540 Descending FlightAware
12:53PM 23.6850 113.4550 229° Southwest 300 345 10,800 -240 Descending FlightAware
12:54PM 23.6470 113.4060 230° Southwest 302 348 10,800 -300 Level FlightAware
12:54PM 23.6100 113.3590 229° Southwest 302 348 10,400 -780 Descending FlightAware
12:55PM 23.5710 113.3110 228° Southwest 301 346 9,800 -900 Descending FlightAware
12:55PM 23.5460 113.2790 230° Southwest 291 335 9,400 -780 Descending FlightAware
12:56PM 23.5210 113.2460 230° Southwest 269 310 9,100 -540 Descending FlightAware
12:56PM 23.5080 113.2300 228° Southwest 259 298 9,000 -600 Descending FlightAware
12:57PM 23.4870 113.2060 226° Southwest 238 274 8,700 -660 Descending FlightAware
12:57PM 23.4760 113.2010 203° Southwest 223 257 8,600 -960 Descending FlightAware
12:57PM 23.4430 113.1950 189° South 218 251 8,000 -1,080 Descending FlightAware
12:58PM 23.4200 113.1900 191° South 213 245 7,600 -1,020 Descending FlightAware
12:58PM 23.4030 113.1860 192° South 212 244 7,300 -1,140 Descending FlightAware
12:59PM 23.3680 113.1790 190° South 208 239 6,600 -1,020 Descending FlightAware
12:59PM 23.3520 113.1760 190° South 201 231 6,400 -540 Descending FlightAware
12:59PM 23.3260 113.1700 192° South 194 223 6,200 -480 Descending FlightAware
01:00PM 23.3030 113.1650 191° South 189 217 6,000 -540 Descending FlightAware
01:00PM 23.2740 113.1590 191° South 192 221 5,700 -600 Descending FlightAware
01:01PM 23.2500 113.1540 191° South 189 217 5,400 -600 Descending FlightAware
01:01PM 23.2300 113.1500 190° South 184 212 5,200 -360 Descending FlightAware
01:02PM 23.2050 113.1450 190° South 185 213 5,100 -300 Descending FlightAware
01:02PM 23.1930 113.1420 193° South 187 215 5,000 -600 Descending FlightAware
01:02PM 23.1670 113.1370 190° South 183 211 4,700 -600 Descending FlightAware
01:03PM 23.1510 113.1340 190° South 183 211 4,500 -600 Descending FlightAware
01:03PM 23.1410 113.1330 185° South 183 211 4,400 -480 Descending FlightAware
01:03PM 23.1240 113.1470 143° Southeast 185 213 4,200 -300 Descending FlightAware
01:04PM 23.1310 113.1850 79° East 205 236 4,100 -120 Descending FlightAware
01:05PM 23.1520 113.2070 44° Northeast 204 235 4,100  Level FlightAware
01:05PM 23.1730 113.2270 41° Northeast 209 241 4,100 -480 Level FlightAware
01:06PM 23.1960 113.2350 18° North 212 244 3,700 -1,080 Descending FlightAware
01:06PM 23.2260 113.2430 14° North 213 245 3,100 -1,140 Descending FlightAware
01:07PM 23.2530 113.2500 13° North 204 235 2,600 -1,080 Descending FlightAware
01:07PM 23.2730 113.2560 15° North 183 211 2,200 -900 Descending FlightAware
01:07PM 23.2870 113.2590 11° North 168 193 2,000 -720 Descending FlightAware
01:08PM 23.3040 113.2640 15° North 144 166 1,700 -720 Descending FlightAware
01:08PM 23.3200 113.2680 13° North 136 157 1,400 -360 Descending FlightAware
01:09PM 23.3340 113.2720 15° North 136 157 1,400  Level FlightAware
01:11PM 23.3924 113.2988 23° Northeast  Level Estimated